Straumvik — LEYJ — position and weather

sailwx.info

Track history (hours):
 
Tides and Currents Weather Stations Pressure Air Temp Water Temp Dewpoint Dewpoint Depression Visibility Wind Speed Wind Dir Waves Ship Positions

Straumvik

Last reported at 2015-May-23 11:25 UTC. Time now 2015-May-23 11:53 UTC.
Position N 59°17' E 005°20'.

Length 50 m; draft 5 m.

Type: Ship. MMSI: 258260000.

Date/timePositionNaut miles runAvg speedWind from/ knotsBaromVisibWave heightAir tempDewpointWater temp
2015-May-23 11:25N 59°17' E 005°20'1 0.1
2015-May-23 00:16N 59°16' E 005°21'4 6.0
2015-May-22 23:32N 59°13' E 005°28'5 5.1
2015-May-22 22:33N 59°16' E 005°36'5 4.8
2015-May-22 21:31N 59°20' E 005°40'0 0.0
2015-May-22 20:33N 59°20' E 005°40'0 0.3
2015-May-22 19:23N 59°20' E 005°39'7 8.5
2015-May-22 18:33N 59°15' E 005°30'11 2.7
2015-May-22 14:31N 59°18' E 005°10'2 1.7
2015-May-22 13:28N 59°16' E 005°12'0 0.1
2015-May-22 10:33N 59°16' E 005°11'14 0.4
2015-May-20 23:28N 59°30' E 005°13'15 7.8
2015-May-20 21:29N 59°15' E 005°21'7 7.2
2015-May-20 20:33N 59°11' E 005°32'8 7.5
2015-May-20 19:33N 59°08' E 005°45'7 7.4
2015-May-20 18:33N 59°02' E 005°52'8 7.6
2015-May-20 17:33N 58°56' E 006°01'6 5.6
2015-May-20 16:33N 58°52' E 006°09'0 0.0
2015-May-20 15:33N 58°52' E 006°09'0 0.0
2015-May-20 14:34N 58°52' E 006°09'9 9.1
2015-May-20 13:33N 58°58' E 005°56'9 9.1
2015-May-20 12:33N 59°06' E 005°48'9 9.4
2015-May-20 11:33N 59°11' E 005°33'8 8.1
2015-May-20 10:32N 59°16' E 005°20'2 0.3
2015-May-20 03:27N 59°15' E 005°22'6 6.6
2015-May-20 02:33N 59°13' E 005°33'8 7.7
2015-May-20 01:32N 59°20' E 005°39'1 0.3
2015-May-19 23:13N 59°20' E 005°40'5 6.8
2015-May-19 22:29N 59°16' E 005°37'9 9.5
2015-May-19 21:33N 59°08' E 005°45'9 9.3
2015-May-19 20:33N 58°59' E 005°51'6 6.1
2015-May-19 19:33N 58°54' E 005°45'0 0.0
2015-May-19 18:33N 58°54' E 005°45'0 0.0
2015-May-19 17:33N 58°54' E 005°45'0 0.0
2015-May-19 16:33N 58°54' E 005°45'0 0.0
2015-May-19 15:33N 58°54' E 005°45'0 0.0
2015-May-19 14:33N 58°54' E 005°45'0 0.0
2015-May-19 13:33N 58°54' E 005°45'0 0.0
2015-May-19 12:33N 58°54' E 005°45'0 0.0
2015-May-19 11:33N 58°54' E 005°45'0 0.0
2015-May-19 10:33N 58°54' E 005°45'0 0.0
2015-May-19 09:33N 58°54' E 005°45'0 0.0
2015-May-19 08:33N 58°54' E 005°45'0 0.0
2015-May-19 07:33N 58°54' E 005°45'0 0.1
2015-May-19 06:33N 58°54' E 005°45'0 0.0
2015-May-19 05:33N 58°54' E 005°45'0 0.0
2015-May-19 04:33N 58°54' E 005°45'0 0.0
2015-May-19 03:33N 58°54' E 005°45'0 0.0
2015-May-19 02:33N 58°54' E 005°45'0 0.0
2015-May-19 01:33N 58°54' E 005°45'2 2.3
2015-May-19 00:33N 58°56' E 005°47'6 6.1
2015-May-18 23:33N 59°01' E 005°52'4 4.1
2015-May-18 22:33N 59°05' E 005°54'0 0.0
2015-May-18 21:33N 59°05' E 005°54'0 0.0
2015-May-18 20:33N 59°05' E 005°54'1 0.5
2015-May-18 19:33N 59°05' E 005°53'7 7.0
2015-May-18 18:33N 58°59' E 005°48'5 5.1
2015-May-18 17:33N 58°54' E 005°45'0 0.0
2015-May-18 16:33N 58°54' E 005°45'0 0.0
2015-May-18 15:33N 58°54' E 005°45'0 0.0
2015-May-18 14:33N 58°54' E 005°45'0 0.0
2015-May-18 13:33N 58°54' E 005°45'0 0.0
2015-May-18 12:34N 58°54' E 005°45'6 6.4
2015-May-18 11:33N 59°00' E 005°48'6 5.9
2015-May-18 10:33N 59°05' E 005°42'6 6.2
2015-May-18 09:33N 59°09' E 005°32'7 6.4
2015-May-18 08:26N 59°15' E 005°25'5 5.2
2015-May-18 07:25N 59°19' E 005°19'6 6.5
2015-May-18 06:33N 59°25' E 005°15'  
Track history (hours):
 
Tides and Currents Weather Stations Pressure Air Temp Water Temp Dewpoint Dewpoint Depression Visibility Wind Speed Wind Dir Waves Ship Positions

Straumvik

Last reported at 2015-May-23 11:25 UTC. Time now 2015-May-23 11:53 UTC.
Position N 59°17' E 005°20'.

Length 50 m; draft 5 m.

Type: Ship. MMSI: 258260000.

Date/timePositionNaut miles runAvg speedWind from/ knotsBaromVisibWave heightAir tempDewpointWater temp
2015-May-23 11:25N 59°17' E 005°20'1 0.1
2015-May-23 00:16N 59°16' E 005°21'4 6.0
2015-May-22 23:32N 59°13' E 005°28'5 5.1
2015-May-22 22:33N 59°16' E 005°36'5 4.8
2015-May-22 21:31N 59°20' E 005°40'0 0.0
2015-May-22 20:33N 59°20' E 005°40'0 0.3
2015-May-22 19:23N 59°20' E 005°39'7 8.5
2015-May-22 18:33N 59°15' E 005°30'11 2.7
2015-May-22 14:31N 59°18' E 005°10'2 1.7
2015-May-22 13:28N 59°16' E 005°12'0 0.1
2015-May-22 10:33N 59°16' E 005°11'14 0.4
2015-May-20 23:28N 59°30' E 005°13'15 7.8
2015-May-20 21:29N 59°15' E 005°21'7 7.2
2015-May-20 20:33N 59°11' E 005°32'8 7.5
2015-May-20 19:33N 59°08' E 005°45'7 7.4
2015-May-20 18:33N 59°02' E 005°52'8 7.6
2015-May-20 17:33N 58°56' E 006°01'6 5.6
2015-May-20 16:33N 58°52' E 006°09'0 0.0
2015-May-20 15:33N 58°52' E 006°09'0 0.0
2015-May-20 14:34N 58°52' E 006°09'9 9.1
2015-May-20 13:33N 58°58' E 005°56'9 9.1
2015-May-20 12:33N 59°06' E 005°48'9 9.4
2015-May-20 11:33N 59°11' E 005°33'8 8.1
2015-May-20 10:32N 59°16' E 005°20'2 0.3
2015-May-20 03:27N 59°15' E 005°22'6 6.6
2015-May-20 02:33N 59°13' E 005°33'8 7.7
2015-May-20 01:32N 59°20' E 005°39'1 0.3
2015-May-19 23:13N 59°20' E 005°40'5 6.8
2015-May-19 22:29N 59°16' E 005°37'9 9.5
2015-May-19 21:33N 59°08' E 005°45'9 9.3
2015-May-19 20:33N 58°59' E 005°51'6 6.1
2015-May-19 19:33N 58°54' E 005°45'0 0.0
2015-May-19 18:33N 58°54' E 005°45'0 0.0
2015-May-19 17:33N 58°54' E 005°45'0 0.0
2015-May-19 16:33N 58°54' E 005°45'0 0.0
2015-May-19 15:33N 58°54' E 005°45'0 0.0
2015-May-19 14:33N 58°54' E 005°45'0 0.0
2015-May-19 13:33N 58°54' E 005°45'0 0.0
2015-May-19 12:33N 58°54' E 005°45'0 0.0
2015-May-19 11:33N 58°54' E 005°45'0 0.0
2015-May-19 10:33N 58°54' E 005°45'0 0.0
2015-May-19 09:33N 58°54' E 005°45'0 0.0
2015-May-19 08:33N 58°54' E 005°45'0 0.0
2015-May-19 07:33N 58°54' E 005°45'0 0.1
2015-May-19 06:33N 58°54' E 005°45'0 0.0
2015-May-19 05:33N 58°54' E 005°45'0 0.0
2015-May-19 04:33N 58°54' E 005°45'0 0.0
2015-May-19 03:33N 58°54' E 005°45'0 0.0
2015-May-19 02:33N 58°54' E 005°45'0 0.0
2015-May-19 01:33N 58°54' E 005°45'2 2.3
2015-May-19 00:33N 58°56' E 005°47'6 6.1
2015-May-18 23:33N 59°01' E 005°52'4 4.1
2015-May-18 22:33N 59°05' E 005°54'0 0.0
2015-May-18 21:33N 59°05' E 005°54'0 0.0
2015-May-18 20:33N 59°05' E 005°54'1 0.5
2015-May-18 19:33N 59°05' E 005°53'7 7.0
2015-May-18 18:33N 58°59' E 005°48'5 5.1
2015-May-18 17:33N 58°54' E 005°45'0 0.0
2015-May-18 16:33N 58°54' E 005°45'0 0.0
2015-May-18 15:33N 58°54' E 005°45'0 0.0
2015-May-18 14:33N 58°54' E 005°45'0 0.0
2015-May-18 13:33N 58°54' E 005°45'0 0.0
2015-May-18 12:34N 58°54' E 005°45'6 6.4
2015-May-18 11:33N 59°00' E 005°48'6 5.9
2015-May-18 10:33N 59°05' E 005°42'6 6.2
2015-May-18 09:33N 59°09' E 005°32'7 6.4
2015-May-18 08:26N 59°15' E 005°25'5 5.2
2015-May-18 07:25N 59°19' E 005°19'6 6.5
2015-May-18 06:33N 59°25' E 005°15'  

Dump ship's entire track history